This is the latest recevied weather packets stored in our database for station/object IZ8GMP-13. If no packets are shown the sender has not sent any weather packets the latest 10 day(s).
| Time | Temp. | Humidity | Pressure | Rain* | Wind** | Luminosity | Snow |
|---|---|---|---|---|---|---|---|
| 1777307568 | 18.89° C | 57% | 1016.5 hPa | - | - | - | - |
| 1777306365 | 18.89° C | 66% | 1016.8 hPa | - | - | - | - |
| 1777305161 | 19.44° C | 59% | 1016.7 hPa | - | - | - | - |
| 1777303958 | 18.89° C | 58% | 1016.7 hPa | - | - | - | - |
| 1777302754 | 18.89° C | 64% | 1016.6 hPa | - | - | - | - |
| 1777301551 | 18.89° C | 62% | 1016.5 hPa | - | - | - | - |
| 1777300348 | 18.89° C | 61% | 1016.6 hPa | - | - | - | - |
| 1777299144 | 19.44° C | 62% | 1016.9 hPa | - | - | - | - |
| 1777297941 | 20° C | 50% | 1016.9 hPa | - | - | - | - |
| 1777296737 | 20° C | 57% | 1017.1 hPa | - | - | - | - |
| 1777295533 | 19.44° C | 63% | 1017.4 hPa | - | - | - | - |
| 1777294330 | 19.44° C | 65% | 1017.5 hPa | - | - | - | - |
| 1777293127 | 19.44° C | 64% | 1017.4 hPa | - | - | - | - |
| 1777291923 | 19.44° C | 61% | 1017.5 hPa | - | - | - | - |
| 1777290720 | 20° C | 57% | 1017.4 hPa | - | - | - | - |
| 1777289516 | 19.44° C | 61% | 1017.6 hPa | - | - | - | - |
| 1777288313 | 20° C | 61% | 1017.8 hPa | - | - | - | - |
| 1777287109 | 20° C | 62% | 1017.9 hPa | - | - | - | - |
| 1777285906 | 18.89° C | 65% | 1017.9 hPa | - | - | - | - |
| 1777282296 | 18.33° C | 68% | 1018.6 hPa | - | - | - | - |
| 1777281092 | 17.22° C | 72% | 1018.7 hPa | - | - | - | - |
| 1777279888 | 17.22° C | 73% | 1018.8 hPa | - | - | - | - |
| 1777278685 | 17.22° C | 73% | 1018.8 hPa | - | - | - | - |
| 1777277482 | 17.22° C | 70% | 1018.8 hPa | - | - | - | - |
| 1777276278 | 17.22° C | 68% | 1018.8 hPa | - | - | - | - |
* Rain since midnight (hover to see other rain measurements)
** Current wind speed in m/s (hover to see current wind gust speed)